EHRD Airport Information

Runway Information
Runway 06 Length 7218 ft width 148 ft
Elevation 0 ft Threshold 656 ft Heading 57
Runway 24 Length 7218 ft Width 148 ft
Elevation 0 ft Threshold 656 ft Heading 237
Airport Frequencies
Type A/D Name SCHIPHOL Frequency 121.2 MHZ
Type APP Name APP Frequency 127.025 MHZ
Type ATIS Name ATIS Frequency 110.4 MHZ
Type GND Name GND Frequency 122.175 MHZ
Type TWR Name TWR Frequency 118.2 MHZ
Airport Navaids
Type NDB Name Rotterdam Frequency 351 KHZ
Type VOR-DME Name Rotterdam Frequency 110400 KHZ
Airport Weather Information & NOTAM
ADDS - METARS form results

(1923 UTC 23 May 2019)
Data provider http://aviationweather.gov/metar/data/
 
METAR text: EHRD 231855Z AUTO 30003KT 270V330 9999 NSC 19/08 Q1015 NOSIG
Conditions at: EHRD (ROTTERDAM AIRPOR, NL) observed 1855 UTC 23 May 2019
Temperature: 19.0°C (66°F)
Dewpoint: 8.0°C (46°F) [RH = 49%]
Pressure (altimeter): 29.97 inches Hg (1015.0 mb)
Winds: from the WNW (300 degrees) at 3 MPH (3 knots; 1.5 m/s)
Visibility: 6 or more miles (10+ km)
Ceiling: at least 12,000 feet AGL
Clouds: sky clear below 12,000 feet AGL
Weather: no significant weather observed at this time

METAR text: EHRD 231825Z AUTO 30003KT 270V340 9999 NSC 19/08 Q1015 NOSIG
Conditions at: EHRD (ROTTERDAM AIRPOR, NL) observed 1825 UTC 23 May 2019
Temperature: 19.0°C (66°F)
Dewpoint: 8.0°C (46°F) [RH = 49%]
Pressure (altimeter): 29.97 inches Hg (1015.0 mb)
Winds: from the WNW (300 degrees) at 3 MPH (3 knots; 1.5 m/s)
Visibility: 6 or more miles (10+ km)
Ceiling: at least 12,000 feet AGL
Clouds: sky clear below 12,000 feet AGL
Weather: no significant weather observed at this time

Forecast for: EHRD (ROTTERDAM AIRPOR, NL)
Text: TAF EHRD 231633Z 2318/2424 20005KT CAVOK
Forecast period: 1800 UTC 23 May 2019 to 0900 UTC 24 May 2019
Forecast type: FROM: standard forecast or significant change
Winds: from the SSW (200 degrees) at 6 MPH (5 knots; 2.6 m/s)
Visibility: 6 or more miles 10+ km)
Ceiling: unknown
Clouds: missing
Weather: NSW  (no significant weather)
Text: BECMG 2409/2412 30012KT
Forecast period: 0900 to 1800 UTC 24 May 2019
Forecast type: BECOMING: Conditions expected to become as follows by 1200 UTC 24 May 2019
Winds: from the WNW (300 degrees) at 14 MPH (12 knots; 6.2 m/s)
Visibility: 6 or more miles 10+ km)
Ceiling: unknown
Clouds: missing
Weather: NSW  (no significant weather)
Text: BECMG 2418/2421 34005KT
Forecast period: 1800 UTC 24 May 2019 to 0000 UTC 25 May 2019
Forecast type: BECOMING: Conditions expected to become as follows by 2100 UTC 24 May 2019
Winds: from the NNW (340 degrees) at 6 MPH (5 knots; 2.6 m/s)
Visibility: 6 or more miles 10+ km)
Ceiling: unknown
Clouds: missing
Weather: NSW  (no significant weather)